sensor_id;sensor_type;location;lat;lon;timestamp;P1;durP1;ratioP1;P2;durP2;ratioP2
63312;SDS011;49442;45.640;13.812;2024-03-07T00:02:13;30.83;;;18.02;;
63312;SDS011;49442;45.640;13.812;2024-03-07T00:04:38;29.02;;;18.95;;
63312;SDS011;49442;45.640;13.812;2024-03-07T00:07:04;24.80;;;16.63;;
63312;SDS011;49442;45.640;13.812;2024-03-07T00:09:32;28.70;;;16.70;;
63312;SDS011;49442;45.640;13.812;2024-03-07T00:11:59;27.90;;;16.75;;
63312;SDS011;49442;45.640;13.812;2024-03-07T00:14:25;27.33;;;18.15;;
63312;SDS011;49442;45.640;13.812;2024-03-07T00:16:54;26.08;;;16.67;;
63312;SDS011;49442;45.640;13.812;2024-03-07T00:19:21;29.85;;;17.38;;
63312;SDS011;49442;45.640;13.812;2024-03-07T00:21:50;28.88;;;16.75;;
63312;SDS011;49442;45.640;13.812;2024-03-07T00:24:16;27.95;;;17.83;;
63312;SDS011;49442;45.640;13.812;2024-03-07T00:26:42;26.35;;;17.05;;
63312;SDS011;49442;45.640;13.812;2024-03-07T00:29:07;27.55;;;17.08;;
63312;SDS011;49442;45.640;13.812;2024-03-07T00:31:33;26.60;;;16.10;;
63312;SDS011;49442;45.640;13.812;2024-03-07T00:33:59;26.35;;;17.10;;
63312;SDS011;49442;45.640;13.812;2024-03-07T00:36:25;26.67;;;16.52;;
63312;SDS011;49442;45.640;13.812;2024-03-07T00:38:51;26.92;;;18.40;;
63312;SDS011;49442;45.640;13.812;2024-03-07T00:41:18;30.88;;;17.67;;
63312;SDS011;49442;45.640;13.812;2024-03-07T00:43:45;28.90;;;17.20;;
63312;SDS011;49442;45.640;13.812;2024-03-07T00:46:11;27.33;;;17.38;;
63312;SDS011;49442;45.640;13.812;2024-03-07T00:48:37;28.25;;;17.35;;
63312;SDS011;49442;45.640;13.812;2024-03-07T00:51:06;26.45;;;17.95;;
63312;SDS011;49442;45.640;13.812;2024-03-07T00:53:34;24.25;;;16.58;;
63312;SDS011;49442;45.640;13.812;2024-03-07T00:55:59;27.52;;;18.05;;
63312;SDS011;49442;45.640;13.812;2024-03-07T00:58:25;29.70;;;18.85;;
63312;SDS011;49442;45.640;13.812;2024-03-07T01:00:52;28.92;;;18.17;;
63312;SDS011;49442;45.640;13.812;2024-03-07T01:03:18;30.73;;;20.05;;
63312;SDS011;49442;45.640;13.812;2024-03-07T01:05:44;32.38;;;18.65;;
63312;SDS011;49442;45.640;13.812;2024-03-07T01:08:10;26.80;;;18.58;;
63312;SDS011;49442;45.640;13.812;2024-03-07T01:10:36;35.55;;;19.45;;
63312;SDS011;49442;45.640;13.812;2024-03-07T01:13:02;27.75;;;18.60;;
63312;SDS011;49442;45.640;13.812;2024-03-07T01:15:31;27.55;;;19.48;;
63312;SDS011;49442;45.640;13.812;2024-03-07T01:17:57;29.80;;;18.88;;
63312;SDS011;49442;45.640;13.812;2024-03-07T01:20:23;29.92;;;18.60;;
63312;SDS011;49442;45.640;13.812;2024-03-07T01:22:50;24.38;;;17.38;;
63312;SDS011;49442;45.640;13.812;2024-03-07T01:25:16;30.88;;;18.63;;
63312;SDS011;49442;45.640;13.812;2024-03-07T01:27:42;28.40;;;18.45;;
63312;SDS011;49442;45.640;13.812;2024-03-07T01:30:09;28.02;;;18.77;;
63312;SDS011;49442;45.640;13.812;2024-03-07T01:32:35;34.65;;;18.92;;
63312;SDS011;49442;45.640;13.812;2024-03-07T01:35:01;29.23;;;18.65;;
63312;SDS011;49442;45.640;13.812;2024-03-07T01:37:27;28.13;;;18.73;;
63312;SDS011;49442;45.640;13.812;2024-03-07T01:39:53;29.20;;;19.40;;
63312;SDS011;49442;45.640;13.812;2024-03-07T01:42:19;29.40;;;17.92;;
63312;SDS011;49442;45.640;13.812;2024-03-07T01:44:45;30.52;;;18.85;;
63312;SDS011;49442;45.640;13.812;2024-03-07T01:47:11;29.17;;;18.23;;
63312;SDS011;49442;45.640;13.812;2024-03-07T01:49:39;30.98;;;18.55;;
63312;SDS011;49442;45.640;13.812;2024-03-07T01:52:05;34.10;;;19.52;;
63312;SDS011;49442;45.640;13.812;2024-03-07T01:54:31;31.85;;;18.08;;
63312;SDS011;49442;45.640;13.812;2024-03-07T01:56:57;30.33;;;18.45;;
63312;SDS011;49442;45.640;13.812;2024-03-07T01:59:23;27.95;;;19.20;;
63312;SDS011;49442;45.640;13.812;2024-03-07T02:01:50;27.15;;;17.65;;
63312;SDS011;49442;45.640;13.812;2024-03-07T02:04:16;30.00;;;17.90;;
63312;SDS011;49442;45.640;13.812;2024-03-07T02:06:42;31.48;;;20.05;;
63312;SDS011;49442;45.640;13.812;2024-03-07T02:09:08;31.05;;;18.13;;
63312;SDS011;49442;45.640;13.812;2024-03-07T02:11:33;26.90;;;17.50;;
63312;SDS011;49442;45.640;13.812;2024-03-07T02:13:59;27.35;;;16.50;;
63312;SDS011;49442;45.640;13.812;2024-03-07T02:16:25;26.98;;;16.88;;
63312;SDS011;49442;45.640;13.812;2024-03-07T02:18:51;26.50;;;16.95;;
63312;SDS011;49442;45.640;13.812;2024-03-07T02:21:16;25.35;;;17.83;;
63312;SDS011;49442;45.640;13.812;2024-03-07T02:23:42;26.58;;;16.70;;
63312;SDS011;49442;45.640;13.812;2024-03-07T02:26:08;26.00;;;16.73;;
63312;SDS011;49442;45.640;13.812;2024-03-07T02:28:34;28.42;;;16.30;;
63312;SDS011;49442;45.640;13.812;2024-03-07T02:31:00;21.83;;;15.57;;
63312;SDS011;49442;45.640;13.812;2024-03-07T02:33:26;25.02;;;16.60;;
63312;SDS011;49442;45.640;13.812;2024-03-07T02:35:52;25.02;;;15.50;;
63312;SDS011;49442;45.640;13.812;2024-03-07T02:38:18;24.25;;;15.57;;
63312;SDS011;49442;45.640;13.812;2024-03-07T02:40:44;24.63;;;15.82;;
63312;SDS011;49442;45.640;13.812;2024-03-07T02:43:11;25.80;;;15.45;;
63312;SDS011;49442;45.640;13.812;2024-03-07T02:45:37;23.50;;;15.93;;
63312;SDS011;49442;45.640;13.812;2024-03-07T02:48:03;23.13;;;14.93;;
63312;SDS011;49442;45.640;13.812;2024-03-07T02:50:32;23.25;;;14.57;;
63312;SDS011;49442;45.640;13.812;2024-03-07T02:52:58;26.05;;;15.10;;
63312;SDS011;49442;45.640;13.812;2024-03-07T02:55:23;21.90;;;15.52;;
63312;SDS011;49442;45.640;13.812;2024-03-07T02:57:49;22.98;;;15.05;;
63312;SDS011;49442;45.640;13.812;2024-03-07T03:00:15;24.80;;;16.45;;
63312;SDS011;49442;45.640;13.812;2024-03-07T03:02:51;27.63;;;15.38;;
63312;SDS011;49442;45.640;13.812;2024-03-07T03:05:17;22.52;;;15.18;;
63312;SDS011;49442;45.640;13.812;2024-03-07T03:07:43;23.52;;;15.05;;
63312;SDS011;49442;45.640;13.812;2024-03-07T03:10:12;24.65;;;14.93;;
63312;SDS011;49442;45.640;13.812;2024-03-07T03:12:39;26.92;;;15.80;;
63312;SDS011;49442;45.640;13.812;2024-03-07T03:15:06;26.63;;;16.77;;
63312;SDS011;49442;45.640;13.812;2024-03-07T03:17:32;24.35;;;16.42;;
63312;SDS011;49442;45.640;13.812;2024-03-07T03:19:58;24.27;;;15.93;;
63312;SDS011;49442;45.640;13.812;2024-03-07T03:22:24;24.85;;;15.80;;
63312;SDS011;49442;45.640;13.812;2024-03-07T03:24:52;24.25;;;15.57;;
63312;SDS011;49442;45.640;13.812;2024-03-07T03:27:20;27.15;;;15.80;;
63312;SDS011;49442;45.640;13.812;2024-03-07T03:29:46;24.50;;;15.48;;
63312;SDS011;49442;45.640;13.812;2024-03-07T03:32:13;26.83;;;15.63;;
63312;SDS011;49442;45.640;13.812;2024-03-07T03:34:38;26.35;;;15.48;;
63312;SDS011;49442;45.640;13.812;2024-03-07T03:37:05;23.88;;;15.27;;
63312;SDS011;49442;45.640;13.812;2024-03-07T03:39:31;25.77;;;15.43;;
63312;SDS011;49442;45.640;13.812;2024-03-07T03:41:57;23.33;;;15.30;;
63312;SDS011;49442;45.640;13.812;2024-03-07T03:44:23;25.63;;;15.52;;
63312;SDS011;49442;45.640;13.812;2024-03-07T03:46:49;22.42;;;15.02;;
63312;SDS011;49442;45.640;13.812;2024-03-07T03:49:14;24.02;;;15.75;;
63312;SDS011;49442;45.640;13.812;2024-03-07T03:51:41;23.88;;;14.82;;
63312;SDS011;49442;45.640;13.812;2024-03-07T03:54:06;24.65;;;15.88;;
63312;SDS011;49442;45.640;13.812;2024-03-07T03:56:32;23.25;;;15.15;;
63312;SDS011;49442;45.640;13.812;2024-03-07T03:58:57;26.75;;;15.98;;
63312;SDS011;49442;45.640;13.812;2024-03-07T04:01:23;22.15;;;14.77;;
63312;SDS011;49442;45.640;13.812;2024-03-07T04:03:49;23.92;;;14.73;;
63312;SDS011;49442;45.640;13.812;2024-03-07T04:06:14;22.50;;;14.93;;
63312;SDS011;49442;45.640;13.812;2024-03-07T04:08:40;27.88;;;15.57;;
63312;SDS011;49442;45.640;13.812;2024-03-07T04:11:06;21.90;;;14.98;;
63312;SDS011;49442;45.640;13.812;2024-03-07T04:13:34;21.35;;;14.23;;
63312;SDS011;49442;45.640;13.812;2024-03-07T04:16:00;26.52;;;15.55;;
63312;SDS011;49442;45.640;13.812;2024-03-07T04:18:26;22.05;;;15.07;;
63312;SDS011;49442;45.640;13.812;2024-03-07T04:20:51;22.08;;;14.88;;
63312;SDS011;49442;45.640;13.812;2024-03-07T04:23:17;26.52;;;16.02;;
63312;SDS011;49442;45.640;13.812;2024-03-07T04:25:43;23.65;;;14.77;;
63312;SDS011;49442;45.640;13.812;2024-03-07T04:28:09;24.92;;;15.68;;
63312;SDS011;49442;45.640;13.812;2024-03-07T04:30:35;24.75;;;15.00;;
63312;SDS011;49442;45.640;13.812;2024-03-07T04:33:01;24.70;;;14.60;;
63312;SDS011;49442;45.640;13.812;2024-03-07T04:35:26;24.00;;;14.65;;
63312;SDS011;49442;45.640;13.812;2024-03-07T04:37:52;25.88;;;15.60;;
63312;SDS011;49442;45.640;13.812;2024-03-07T04:40:18;25.25;;;15.63;;
63312;SDS011;49442;45.640;13.812;2024-03-07T04:42:44;22.00;;;14.82;;
63312;SDS011;49442;45.640;13.812;2024-03-07T04:45:16;26.08;;;14.88;;
63312;SDS011;49442;45.640;13.812;2024-03-07T04:47:43;21.08;;;14.77;;
63312;SDS011;49442;45.640;13.812;2024-03-07T04:50:10;21.73;;;13.98;;
63312;SDS011;49442;45.640;13.812;2024-03-07T04:52:36;24.05;;;15.20;;
63312;SDS011;49442;45.640;13.812;2024-03-07T04:55:04;26.45;;;15.05;;
63312;SDS011;49442;45.640;13.812;2024-03-07T04:57:34;20.33;;;13.98;;
63312;SDS011;49442;45.640;13.812;2024-03-07T05:00:00;25.23;;;12.85;;
63312;SDS011;49442;45.640;13.812;2024-03-07T05:02:26;20.33;;;13.27;;
63312;SDS011;49442;45.640;13.812;2024-03-07T05:04:52;18.55;;;13.10;;
63312;SDS011;49442;45.640;13.812;2024-03-07T05:07:17;27.30;;;12.50;;
63312;SDS011;49442;45.640;13.812;2024-03-07T05:09:44;19.85;;;12.93;;
63312;SDS011;49442;45.640;13.812;2024-03-07T05:12:10;18.42;;;12.43;;
63312;SDS011;49442;45.640;13.812;2024-03-07T05:14:35;20.45;;;12.30;;
63312;SDS011;49442;45.640;13.812;2024-03-07T05:17:01;22.90;;;12.60;;
63312;SDS011;49442;45.640;13.812;2024-03-07T05:19:33;21.35;;;12.95;;
63312;SDS011;49442;45.640;13.812;2024-03-07T05:21:59;19.23;;;12.45;;
63312;SDS011;49442;45.640;13.812;2024-03-07T05:24:25;18.42;;;12.48;;
63312;SDS011;49442;45.640;13.812;2024-03-07T05:26:51;19.38;;;11.82;;
63312;SDS011;49442;45.640;13.812;2024-03-07T05:29:18;23.70;;;12.85;;
63312;SDS011;49442;45.640;13.812;2024-03-07T05:31:44;20.13;;;11.93;;
63312;SDS011;49442;45.640;13.812;2024-03-07T05:34:12;22.38;;;13.57;;
63312;SDS011;49442;45.640;13.812;2024-03-07T05:36:38;21.40;;;12.63;;
63312;SDS011;49442;45.640;13.812;2024-03-07T05:39:11;26.40;;;13.77;;
63312;SDS011;49442;45.640;13.812;2024-03-07T05:41:41;20.02;;;12.77;;
63312;SDS011;49442;45.640;13.812;2024-03-07T05:44:10;17.50;;;11.43;;
63312;SDS011;49442;45.640;13.812;2024-03-07T05:46:36;19.42;;;12.40;;
63312;SDS011;49442;45.640;13.812;2024-03-07T05:49:06;18.85;;;12.20;;
63312;SDS011;49442;45.640;13.812;2024-03-07T05:51:35;19.17;;;12.07;;
63312;SDS011;49442;45.640;13.812;2024-03-07T05:54:01;19.67;;;13.23;;
63312;SDS011;49442;45.640;13.812;2024-03-07T05:56:32;21.00;;;12.30;;
63312;SDS011;49442;45.640;13.812;2024-03-07T05:59:01;19.90;;;13.02;;
63312;SDS011;49442;45.640;13.812;2024-03-07T06:01:29;18.05;;;12.05;;
63312;SDS011;49442;45.640;13.812;2024-03-07T06:03:59;20.38;;;13.60;;
63312;SDS011;49442;45.640;13.812;2024-03-07T06:06:36;19.27;;;12.77;;
63312;SDS011;49442;45.640;13.812;2024-03-07T06:09:03;19.58;;;13.02;;
63312;SDS011;49442;45.640;13.812;2024-03-07T06:11:39;23.20;;;14.23;;
63312;SDS011;49442;45.640;13.812;2024-03-07T06:14:08;24.65;;;13.57;;
63312;SDS011;49442;45.640;13.812;2024-03-07T06:16:36;22.55;;;12.65;;
63312;SDS011;49442;45.640;13.812;2024-03-07T06:19:03;21.77;;;12.75;;
63312;SDS011;49442;45.640;13.812;2024-03-07T06:21:32;21.83;;;12.40;;
63312;SDS011;49442;45.640;13.812;2024-03-07T06:24:01;17.33;;;11.80;;
63312;SDS011;49442;45.640;13.812;2024-03-07T06:26:28;20.63;;;12.93;;
63312;SDS011;49442;45.640;13.812;2024-03-07T06:29:12;22.10;;;11.65;;
63312;SDS011;49442;45.640;13.812;2024-03-07T06:31:39;18.95;;;12.02;;
63312;SDS011;49442;45.640;13.812;2024-03-07T06:34:05;18.20;;;11.43;;
63312;SDS011;49442;45.640;13.812;2024-03-07T06:36:31;25.35;;;11.57;;
63312;SDS011;49442;45.640;13.812;2024-03-07T06:38:58;23.45;;;12.93;;
63312;SDS011;49442;45.640;13.812;2024-03-07T06:41:24;25.85;;;15.65;;
63312;SDS011;49442;45.640;13.812;2024-03-07T06:43:50;20.60;;;12.05;;
63312;SDS011;49442;45.640;13.812;2024-03-07T06:46:18;20.92;;;11.88;;
63312;SDS011;49442;45.640;13.812;2024-03-07T06:48:45;19.55;;;12.05;;
63312;SDS011;49442;45.640;13.812;2024-03-07T06:51:11;23.63;;;15.77;;
63312;SDS011;49442;45.640;13.812;2024-03-07T06:53:37;18.38;;;12.20;;
63312;SDS011;49442;45.640;13.812;2024-03-07T06:56:03;19.52;;;12.68;;
63312;SDS011;49442;45.640;13.812;2024-03-07T06:58:31;19.45;;;12.80;;
63312;SDS011;49442;45.640;13.812;2024-03-07T07:00:57;20.10;;;12.15;;
63312;SDS011;49442;45.640;13.812;2024-03-07T07:03:25;18.77;;;11.95;;
63312;SDS011;49442;45.640;13.812;2024-03-07T07:05:53;19.00;;;11.80;;
63312;SDS011;49442;45.640;13.812;2024-03-07T07:08:19;23.48;;;12.80;;
63312;SDS011;49442;45.640;13.812;2024-03-07T07:10:45;19.25;;;12.63;;
63312;SDS011;49442;45.640;13.812;2024-03-07T07:13:12;19.48;;;12.32;;
63312;SDS011;49442;45.640;13.812;2024-03-07T07:15:38;16.65;;;11.48;;
63312;SDS011;49442;45.640;13.812;2024-03-07T07:18:04;18.77;;;11.40;;
63312;SDS011;49442;45.640;13.812;2024-03-07T07:20:32;17.35;;;10.77;;
63312;SDS011;49442;45.640;13.812;2024-03-07T07:22:59;18.05;;;11.57;;
63312;SDS011;49442;45.640;13.812;2024-03-07T07:25:28;20.63;;;11.93;;
63312;SDS011;49442;45.640;13.812;2024-03-07T07:27:54;19.25;;;11.65;;
63312;SDS011;49442;45.640;13.812;2024-03-07T07:30:23;20.35;;;11.88;;
63312;SDS011;49442;45.640;13.812;2024-03-07T07:33:01;19.52;;;12.27;;
63312;SDS011;49442;45.640;13.812;2024-03-07T07:35:30;17.77;;;11.90;;
63312;SDS011;49442;45.640;13.812;2024-03-07T07:37:56;18.98;;;12.07;;
63312;SDS011;49442;45.640;13.812;2024-03-07T07:40:23;17.52;;;11.70;;
63312;SDS011;49442;45.640;13.812;2024-03-07T07:42:50;21.10;;;11.10;;
63312;SDS011;49442;45.640;13.812;2024-03-07T07:45:17;18.20;;;11.85;;
63312;SDS011;49442;45.640;13.812;2024-03-07T07:47:47;18.67;;;11.43;;
63312;SDS011;49442;45.640;13.812;2024-03-07T07:50:15;23.53;;;11.33;;
63312;SDS011;49442;45.640;13.812;2024-03-07T07:55:13;17.10;;;11.90;;
63312;SDS011;49442;45.640;13.812;2024-03-07T07:57:43;16.63;;;10.77;;
63312;SDS011;49442;45.640;13.812;2024-03-07T08:00:11;20.13;;;10.57;;
63312;SDS011;49442;45.640;13.812;2024-03-07T08:02:55;23.65;;;10.10;;
63312;SDS011;49442;45.640;13.812;2024-03-07T08:05:22;15.75;;;9.88;;
63312;SDS011;49442;45.640;13.812;2024-03-07T08:07:49;20.15;;;10.30;;
63312;SDS011;49442;45.640;13.812;2024-03-07T08:10:19;15.95;;;9.82;;
63312;SDS011;49442;45.640;13.812;2024-03-07T08:12:48;15.73;;;10.18;;
63312;SDS011;49442;45.640;13.812;2024-03-07T08:15:14;14.80;;;9.50;;
63312;SDS011;49442;45.640;13.812;2024-03-07T08:17:44;15.95;;;9.10;;
63312;SDS011;49442;45.640;13.812;2024-03-07T08:20:14;14.80;;;8.90;;
63312;SDS011;49442;45.640;13.812;2024-03-07T08:22:42;18.25;;;9.35;;
63312;SDS011;49442;45.640;13.812;2024-03-07T08:25:14;13.90;;;8.73;;
63312;SDS011;49442;45.640;13.812;2024-03-07T08:27:41;14.27;;;8.63;;
63312;SDS011;49442;45.640;13.812;2024-03-07T08:30:08;12.68;;;8.18;;
63312;SDS011;49442;45.640;13.812;2024-03-07T08:32:40;16.08;;;9.05;;
63312;SDS011;49442;45.640;13.812;2024-03-07T08:35:06;12.38;;;8.93;;
63312;SDS011;49442;45.640;13.812;2024-03-07T08:37:41;12.82;;;8.05;;
63312;SDS011;49442;45.640;13.812;2024-03-07T08:40:08;15.02;;;8.25;;
63312;SDS011;49442;45.640;13.812;2024-03-07T08:42:36;16.00;;;7.55;;
63312;SDS011;49442;45.640;13.812;2024-03-07T08:45:02;17.58;;;9.23;;
63312;SDS011;49442;45.640;13.812;2024-03-07T08:47:33;12.27;;;8.45;;
63312;SDS011;49442;45.640;13.812;2024-03-07T08:50:00;16.93;;;8.33;;
63312;SDS011;49442;45.640;13.812;2024-03-07T08:52:31;12.55;;;9.18;;
63312;SDS011;49442;45.640;13.812;2024-03-07T08:54:57;12.48;;;8.18;;
63312;SDS011;49442;45.640;13.812;2024-03-07T08:57:23;10.15;;;7.13;;
63312;SDS011;49442;45.640;13.812;2024-03-07T08:59:49;12.57;;;7.78;;
63312;SDS011;49442;45.640;13.812;2024-03-07T09:02:15;12.63;;;8.82;;
63312;SDS011;49442;45.640;13.812;2024-03-07T09:04:41;12.07;;;7.88;;
63312;SDS011;49442;45.640;13.812;2024-03-07T09:07:06;11.00;;;8.15;;
63312;SDS011;49442;45.640;13.812;2024-03-07T09:09:33;12.55;;;7.82;;
63312;SDS011;49442;45.640;13.812;2024-03-07T09:12:00;12.18;;;8.18;;
63312;SDS011;49442;45.640;13.812;2024-03-07T09:14:28;15.63;;;8.95;;
63312;SDS011;49442;45.640;13.812;2024-03-07T09:16:54;13.65;;;8.60;;
63312;SDS011;49442;45.640;13.812;2024-03-07T09:19:20;13.88;;;9.95;;
63312;SDS011;49442;45.640;13.812;2024-03-07T09:21:50;15.18;;;8.07;;
63312;SDS011;49442;45.640;13.812;2024-03-07T09:24:16;13.45;;;8.70;;
63312;SDS011;49442;45.640;13.812;2024-03-07T09:26:45;13.93;;;8.90;;
63312;SDS011;49442;45.640;13.812;2024-03-07T09:29:11;15.88;;;9.30;;
63312;SDS011;49442;45.640;13.812;2024-03-07T09:31:37;13.65;;;9.02;;
63312;SDS011;49442;45.640;13.812;2024-03-07T09:34:05;11.93;;;8.20;;
63312;SDS011;49442;45.640;13.812;2024-03-07T09:36:30;15.68;;;8.50;;
63312;SDS011;49442;45.640;13.812;2024-03-07T09:38:56;13.13;;;9.23;;
63312;SDS011;49442;45.640;13.812;2024-03-07T09:41:22;15.88;;;9.25;;
63312;SDS011;49442;45.640;13.812;2024-03-07T09:43:51;18.48;;;8.57;;
63312;SDS011;49442;45.640;13.812;2024-03-07T09:46:23;11.77;;;7.80;;
63312;SDS011;49442;45.640;13.812;2024-03-07T09:48:50;16.50;;;7.45;;
63312;SDS011;49442;45.640;13.812;2024-03-07T09:51:19;11.07;;;7.80;;
63312;SDS011;49442;45.640;13.812;2024-03-07T09:53:46;11.23;;;7.78;;
63312;SDS011;49442;45.640;13.812;2024-03-07T09:56:16;10.35;;;7.15;;
63312;SDS011;49442;45.640;13.812;2024-03-07T09:58:55;12.27;;;8.25;;
63312;SDS011;49442;45.640;13.812;2024-03-07T10:01:25;10.80;;;7.75;;
63312;SDS011;49442;45.640;13.812;2024-03-07T10:03:58;13.77;;;8.10;;
63312;SDS011;49442;45.640;13.812;2024-03-07T10:06:28;13.07;;;8.43;;
63312;SDS011;49442;45.640;13.812;2024-03-07T10:08:55;18.00;;;7.93;;
63312;SDS011;49442;45.640;13.812;2024-03-07T10:11:21;14.60;;;8.30;;
63312;SDS011;49442;45.640;13.812;2024-03-07T10:13:48;10.45;;;7.40;;
63312;SDS011;49442;45.640;13.812;2024-03-07T10:16:17;11.77;;;7.75;;
63312;SDS011;49442;45.640;13.812;2024-03-07T10:18:43;9.35;;;6.80;;
63312;SDS011;49442;45.640;13.812;2024-03-07T10:21:12;9.60;;;6.55;;
63312;SDS011;49442;45.640;13.812;2024-03-07T10:23:39;7.57;;;6.22;;
63312;SDS011;49442;45.640;13.812;2024-03-07T10:26:05;14.30;;;7.75;;
63312;SDS011;49442;45.640;13.812;2024-03-07T10:28:31;13.77;;;7.15;;
63312;SDS011;49442;45.640;13.812;2024-03-07T10:30:58;14.00;;;7.70;;
63312;SDS011;49442;45.640;13.812;2024-03-07T10:33:28;9.45;;;6.15;;
63312;SDS011;49442;45.640;13.812;2024-03-07T10:35:58;8.52;;;6.55;;
63312;SDS011;49442;45.640;13.812;2024-03-07T10:38:25;10.30;;;6.45;;
63312;SDS011;49442;45.640;13.812;2024-03-07T10:40:53;8.93;;;6.32;;
63312;SDS011;49442;45.640;13.812;2024-03-07T10:43:21;9.40;;;6.22;;
63312;SDS011;49442;45.640;13.812;2024-03-07T10:45:49;8.50;;;5.90;;
63312;SDS011;49442;45.640;13.812;2024-03-07T10:48:17;10.77;;;6.10;;
63312;SDS011;49442;45.640;13.812;2024-03-07T10:58:32;11.80;;;6.97;;
63312;SDS011;49442;45.640;13.812;2024-03-07T11:01:10;10.20;;;7.32;;
63312;SDS011;49442;45.640;13.812;2024-03-07T11:03:38;11.85;;;6.78;;
63312;SDS011;49442;45.640;13.812;2024-03-07T11:06:06;15.13;;;6.97;;
63312;SDS011;49442;45.640;13.812;2024-03-07T11:08:36;14.02;;;7.38;;
63312;SDS011;49442;45.640;13.812;2024-03-07T11:11:03;10.70;;;6.60;;
63312;SDS011;49442;45.640;13.812;2024-03-07T11:13:33;12.13;;;6.53;;
63312;SDS011;49442;45.640;13.812;2024-03-07T11:15:59;10.48;;;6.35;;
63312;SDS011;49442;45.640;13.812;2024-03-07T11:18:26;11.05;;;6.80;;
63312;SDS011;49442;45.640;13.812;2024-03-07T11:20:52;9.25;;;6.30;;
63312;SDS011;49442;45.640;13.812;2024-03-07T11:23:31;10.68;;;6.70;;
63312;SDS011;49442;45.640;13.812;2024-03-07T11:26:04;12.13;;;6.50;;
63312;SDS011;49442;45.640;13.812;2024-03-07T11:28:32;8.93;;;6.68;;
63312;SDS011;49442;45.640;13.812;2024-03-07T11:31:14;8.30;;;5.55;;
63312;SDS011;49442;45.640;13.812;2024-03-07T11:36:47;11.73;;;6.40;;
63312;SDS011;49442;45.640;13.812;2024-03-07T11:39:39;8.32;;;5.75;;
63312;SDS011;49442;45.640;13.812;2024-03-07T11:42:07;8.88;;;5.35;;
63312;SDS011;49442;45.640;13.812;2024-03-07T11:44:33;7.57;;;6.03;;
63312;SDS011;49442;45.640;13.812;2024-03-07T11:47:05;9.60;;;6.28;;
63312;SDS011;49442;45.640;13.812;2024-03-07T11:49:34;9.23;;;5.68;;
63312;SDS011;49442;45.640;13.812;2024-03-07T11:52:01;10.50;;;7.30;;
63312;SDS011;49442;45.640;13.812;2024-03-07T11:54:38;11.55;;;6.75;;
63312;SDS011;49442;45.640;13.812;2024-03-07T11:57:20;11.98;;;6.95;;
63312;SDS011;49442;45.640;13.812;2024-03-07T11:59:51;11.30;;;5.95;;
63312;SDS011;49442;45.640;13.812;2024-03-07T12:02:18;14.65;;;7.00;;
63312;SDS011;49442;45.640;13.812;2024-03-07T12:04:47;10.55;;;6.40;;
63312;SDS011;49442;45.640;13.812;2024-03-07T12:07:14;8.68;;;6.07;;
63312;SDS011;49442;45.640;13.812;2024-03-07T12:09:44;9.07;;;5.45;;
63312;SDS011;49442;45.640;13.812;2024-03-07T12:12:15;8.93;;;5.05;;
63312;SDS011;49442;45.640;13.812;2024-03-07T12:14:42;10.00;;;6.47;;
63312;SDS011;49442;45.640;13.812;2024-03-07T12:17:08;8.30;;;5.70;;
63312;SDS011;49442;45.640;13.812;2024-03-07T12:19:34;10.15;;;6.25;;
63312;SDS011;49442;45.640;13.812;2024-03-07T12:22:03;8.65;;;5.97;;
63312;SDS011;49442;45.640;13.812;2024-03-07T12:24:37;10.85;;;5.90;;
63312;SDS011;49442;45.640;13.812;2024-03-07T12:29:41;11.35;;;5.63;;
63312;SDS011;49442;45.640;13.812;2024-03-07T12:32:13;6.75;;;5.35;;
63312;SDS011;49442;45.640;13.812;2024-03-07T12:34:39;12.40;;;5.53;;
63312;SDS011;49442;45.640;13.812;2024-03-07T12:37:10;6.80;;;5.38;;
63312;SDS011;49442;45.640;13.812;2024-03-07T12:39:36;10.45;;;6.00;;
63312;SDS011;49442;45.640;13.812;2024-03-07T12:42:11;10.40;;;5.60;;
63312;SDS011;49442;45.640;13.812;2024-03-07T12:44:42;10.27;;;5.20;;
63312;SDS011;49442;45.640;13.812;2024-03-07T12:47:12;8.63;;;6.53;;
63312;SDS011;49442;45.640;13.812;2024-03-07T12:49:41;14.55;;;6.80;;
63312;SDS011;49442;45.640;13.812;2024-03-07T12:52:11;11.10;;;6.07;;
63312;SDS011;49442;45.640;13.812;2024-03-07T12:54:40;9.35;;;6.18;;
63312;SDS011;49442;45.640;13.812;2024-03-07T12:57:10;10.10;;;5.95;;
63312;SDS011;49442;45.640;13.812;2024-03-07T12:59:37;14.00;;;7.63;;
63312;SDS011;49442;45.640;13.812;2024-03-07T13:02:05;12.75;;;7.88;;
63312;SDS011;49442;45.640;13.812;2024-03-07T13:04:35;11.00;;;6.80;;
63312;SDS011;49442;45.640;13.812;2024-03-07T13:07:04;12.35;;;6.47;;
63312;SDS011;49442;45.640;13.812;2024-03-07T13:09:30;14.82;;;6.88;;
63312;SDS011;49442;45.640;13.812;2024-03-07T13:11:57;10.05;;;6.68;;
63312;SDS011;49442;45.640;13.812;2024-03-07T13:14:25;12.52;;;7.18;;
63312;SDS011;49442;45.640;13.812;2024-03-07T13:17:01;10.75;;;7.38;;
63312;SDS011;49442;45.640;13.812;2024-03-07T13:19:31;9.87;;;6.10;;
63312;SDS011;49442;45.640;13.812;2024-03-07T13:21:57;12.25;;;7.63;;
63312;SDS011;49442;45.640;13.812;2024-03-07T13:24:24;11.43;;;6.78;;
63312;SDS011;49442;45.640;13.812;2024-03-07T13:26:51;9.88;;;7.43;;
63312;SDS011;49442;45.640;13.812;2024-03-07T13:29:18;9.40;;;6.85;;
63312;SDS011;49442;45.640;13.812;2024-03-07T13:31:49;11.43;;;6.78;;
63312;SDS011;49442;45.640;13.812;2024-03-07T13:34:17;9.57;;;7.18;;
63312;SDS011;49442;45.640;13.812;2024-03-07T13:36:43;11.80;;;7.60;;
63312;SDS011;49442;45.640;13.812;2024-03-07T13:39:10;10.43;;;7.32;;
63312;SDS011;49442;45.640;13.812;2024-03-07T13:41:43;10.10;;;6.78;;
63312;SDS011;49442;45.640;13.812;2024-03-07T13:44:16;11.73;;;7.38;;
63312;SDS011;49442;45.640;13.812;2024-03-07T13:46:44;9.73;;;6.25;;
63312;SDS011;49442;45.640;13.812;2024-03-07T13:49:09;14.73;;;8.00;;
63312;SDS011;49442;45.640;13.812;2024-03-07T13:51:41;14.88;;;7.68;;
63312;SDS011;49442;45.640;13.812;2024-03-07T13:54:21;14.48;;;6.93;;
63312;SDS011;49442;45.640;13.812;2024-03-07T13:59:59;12.43;;;6.88;;
63312;SDS011;49442;45.640;13.812;2024-03-07T14:31:29;18.75;;;7.45;;
63312;SDS011;49442;45.640;13.812;2024-03-07T14:34:03;9.43;;;5.40;;
63312;SDS011;49442;45.640;13.812;2024-03-07T14:37:02;7.88;;;5.28;;
63312;SDS011;49442;45.640;13.812;2024-03-07T14:39:48;9.35;;;5.50;;
63312;SDS011;49442;45.640;13.812;2024-03-07T14:42:17;10.07;;;5.50;;
63312;SDS011;49442;45.640;13.812;2024-03-07T14:44:44;8.80;;;6.03;;
63312;SDS011;49442;45.640;13.812;2024-03-07T14:47:13;11.43;;;5.90;;
63312;SDS011;49442;45.640;13.812;2024-03-07T14:49:41;12.40;;;6.03;;
63312;SDS011;49442;45.640;13.812;2024-03-07T14:52:07;7.93;;;5.15;;
63312;SDS011;49442;45.640;13.812;2024-03-07T14:54:38;9.63;;;5.35;;
63312;SDS011;49442;45.640;13.812;2024-03-07T14:57:05;11.48;;;6.10;;
63312;SDS011;49442;45.640;13.812;2024-03-07T14:59:35;9.35;;;4.93;;
63312;SDS011;49442;45.640;13.812;2024-03-07T15:02:01;12.13;;;4.90;;
63312;SDS011;49442;45.640;13.812;2024-03-07T15:04:29;9.05;;;4.88;;
63312;SDS011;49442;45.640;13.812;2024-03-07T15:06:59;6.83;;;4.53;;
63312;SDS011;49442;45.640;13.812;2024-03-07T15:09:27;6.03;;;4.28;;